Time;durP1;ratioP1;P1;durP2;ratioP2;P2;SDS_P1;SDS_P2;PMS_P1;PMS_P2;Temp;Humidity;BMP_temperature;BMP_pressure;BME280_temperature;BME280_humidity;BME280_pressure;Samples;Min_cycle;Max_cycle;Signal;HPM_P1;HPM_P2
2021/12/30 00:00:45;;;;;;;45.33;5.65;;;7.60;99.90;;;;;;5034487;28;20434;-69
2021/12/30 00:03:10;;;;;;;43.05;5.30;;;7.60;99.90;;;;;;5034419;28;20049;-68
2021/12/30 00:05:37;;;;;;;37.33;5.82;;;7.60;99.90;;;;;;5048851;28;20107;-68
2021/12/30 00:08:04;;;;;;;43.58;5.93;;;7.60;99.90;;;;;;5054376;28;20056;-68
2021/12/30 00:10:29;;;;;;;37.80;5.72;;;7.60;99.90;;;;;;5052677;28;20097;-68
2021/12/30 00:12:57;;;;;;;51.42;6.97;;;7.60;99.90;;;;;;5053650;28;20037;-69
2021/12/30 00:15:23;;;;;;;42.70;6.97;;;7.60;99.90;;;;;;5054156;28;20044;-70
2021/12/30 00:17:48;;;;;;;56.45;6.25;;;7.60;99.90;;;;;;5053087;28;20103;-68
2021/12/30 00:20:16;;;;;;;47.47;6.35;;;7.60;99.90;;;;;;5053084;28;20076;-69
2021/12/30 00:22:42;;;;;;;65.07;7.25;;;7.60;99.90;;;;;;5036188;28;20157;-68
2021/12/30 00:25:13;;;;;;;59.42;6.97;;;7.60;99.90;;;;;;5052459;28;20120;-70
2021/12/30 00:27:38;;;;;;;48.72;6.95;;;7.50;99.90;;;;;;5052473;28;20044;-68
2021/12/30 00:30:09;;;;;;;55.25;7.05;;;7.60;99.90;;;;;;5053876;28;20056;-68
2021/12/30 00:32:35;;;;;;;60.95;7.63;;;7.60;99.90;;;;;;5053626;28;20045;-68
2021/12/30 00:35:00;;;;;;;55.80;7.30;;;7.60;99.90;;;;;;5051662;28;20077;-68
2021/12/30 00:37:26;;;;;;;61.58;7.93;;;7.60;99.90;;;;;;5054238;28;20486;-68
2021/12/30 00:39:52;;;;;;;54.60;8.30;;;7.60;99.90;;;;;;5052031;28;20510;-70
2021/12/30 00:42:18;;;;;;;74.15;7.80;;;7.60;99.90;;;;;;5053700;28;20051;-68
2021/12/30 00:44:43;;;;;;;66.70;7.85;;;7.60;99.90;;;;;;5053080;28;20116;-69
2021/12/30 00:47:09;;;;;;;67.45;9.60;;;7.60;99.90;;;;;;5052496;28;20384;-69
2021/12/30 00:49:35;;;;;;;57.13;7.95;;;7.60;99.90;;;;;;5053509;28;20040;-69
2021/12/30 00:52:01;;;;;;;61.22;9.10;;;7.60;99.90;;;;;;5053547;28;20044;-68
2021/12/30 00:54:27;;;;;;;56.78;8.23;;;7.60;99.90;;;;;;5052876;28;20055;-69
2021/12/30 00:56:53;;;;;;;63.42;9.38;;;7.60;99.90;;;;;;5053654;28;20434;-68
2021/12/30 00:59:18;;;;;;;60.95;8.65;;;7.60;99.90;;;;;;5039760;28;20037;-70
2021/12/30 01:01:44;;;;;;;68.53;9.07;;;7.60;99.90;;;;;;5033542;28;20038;-68
2021/12/30 01:04:10;;;;;;;66.90;8.93;;;7.60;99.90;;;;;;5033216;28;20033;-68
2021/12/30 01:06:36;;;;;;;73.20;9.98;;;7.60;99.90;;;;;;5033593;28;20054;-69
2021/12/30 01:09:03;;;;;;;54.35;8.50;;;7.60;99.90;;;;;;5046737;28;20040;-70
2021/12/30 01:11:30;;;;;;;77.22;9.48;;;7.60;99.90;;;;;;5052921;28;20098;-68
2021/12/30 01:14:10;;;;;;;71.07;9.15;;;7.60;99.90;;;;;;5034925;28;20045;-67
2021/12/30 01:16:42;;;;;;;91.40;9.38;;;7.60;99.90;;;;;;5050520;28;20041;-69
2021/12/30 01:19:23;;;;;;;67.55;8.95;;;7.60;99.90;;;;;;5052987;28;20528;-69
2021/12/30 01:21:52;;;;;;;62.85;8.52;;;7.60;99.90;;;;;;5052504;28;20495;-68
2021/12/30 01:24:19;;;;;;;68.22;8.50;;;7.60;99.90;;;;;;5053005;28;20053;-67
2021/12/30 01:26:45;;;;;;;69.38;9.27;;;7.70;99.90;;;;;;5050749;28;20506;-68
2021/12/30 01:29:10;;;;;;;87.47;9.77;;;7.60;99.90;;;;;;5052546;28;20060;-68
2021/12/30 01:31:39;;;;;;;78.00;8.80;;;7.60;99.90;;;;;;5052580;28;20049;-68
2021/12/30 01:34:04;;;;;;;78.03;10.35;;;7.60;99.90;;;;;;5051482;28;20057;-68
2021/12/30 01:36:30;;;;;;;84.93;10.25;;;7.60;99.90;;;;;;5051888;28;20459;-68
2021/12/30 01:38:56;;;;;;;79.35;9.52;;;8.00;99.90;;;;;;5052456;28;20037;-68
2021/12/30 01:41:22;;;;;;;75.15;8.45;;;7.40;99.90;;;;;;5051357;28;20041;-68
2021/12/30 01:43:49;;;;;;;81.47;10.18;;;7.60;99.90;;;;;;5049947;28;20041;-68
2021/12/30 01:46:15;;;;;;;94.03;9.77;;;7.30;99.90;;;;;;5033887;28;20041;-68
2021/12/30 01:48:42;;;;;;;81.22;9.15;;;7.30;99.90;;;;;;5051836;28;20131;-68
2021/12/30 01:51:09;;;;;;;67.25;9.18;;;7.20;99.90;;;;;;5051010;28;20491;-68
2021/12/30 01:53:39;;;;;;;89.30;10.02;;;7.30;99.90;;;;;;5052432;28;20041;-69
2021/12/30 01:56:08;;;;;;;81.90;9.75;;;7.20;99.90;;;;;;5051356;28;20647;-69
2021/12/30 01:58:36;;;;;;;87.10;10.70;;;7.20;99.90;;;;;;5052293;28;20055;-69
2021/12/30 02:01:03;;;;;;;78.22;10.50;;;7.10;99.90;;;;;;5050851;28;20384;-69
2021/12/30 02:03:29;;;;;;;82.93;8.93;;;7.10;99.90;;;;;;5051702;28;20045;-68
2021/12/30 02:05:54;;;;;;;82.70;10.10;;;7.00;99.90;;;;;;5051764;28;20066;-69
2021/12/30 02:08:20;;;;;;;70.93;8.70;;;7.00;99.90;;;;;;5052161;28;20045;-69
2021/12/30 02:10:48;;;;;;;61.10;8.73;;;7.00;99.90;;;;;;5050905;28;20047;-67
2021/12/30 02:13:15;;;;;;;69.63;8.75;;;7.00;99.90;;;;;;5050486;28;20057;-70
2021/12/30 02:15:42;;;;;;;59.20;8.32;;;7.00;99.90;;;;;;5050712;28;20454;-68
2021/12/30 02:18:07;;;;;;;69.10;9.68;;;7.10;99.90;;;;;;5051921;28;20037;-68
2021/12/30 02:20:49;;;;;;;63.85;9.18;;;7.10;99.90;;;;;;5051276;28;20052;-68
2021/12/30 02:23:19;;;;;;;61.38;9.80;;;7.10;99.90;;;;;;5033657;28;20440;-70
2021/12/30 02:25:46;;;;;;;73.55;9.00;;;7.20;99.90;;;;;;5050377;28;20124;-70
2021/12/30 02:28:14;;;;;;;67.95;9.30;;;7.20;99.90;;;;;;5050524;28;20049;-69
2021/12/30 02:30:42;;;;;;;80.43;10.60;;;7.20;99.90;;;;;;5050610;28;20130;-67
2021/12/30 02:33:07;;;;;;;59.55;8.27;;;7.20;99.90;;;;;;5049725;28;20048;-69
2021/12/30 02:35:37;;;;;;;64.15;8.43;;;7.20;99.90;;;;;;5050428;28;20523;-68
2021/12/30 02:38:09;;;;;;;69.15;8.05;;;7.20;99.90;;;;;;5045716;28;20037;-69
2021/12/30 02:40:43;;;;;;;66.55;8.07;;;7.30;99.90;;;;;;5033744;28;20136;-69
2021/12/30 02:43:29;;;;;;;57.90;8.90;;;7.20;99.90;;;;;;5050561;28;20056;-68
2021/12/30 02:46:00;;;;;;;68.85;8.75;;;7.30;99.90;;;;;;5041122;28;20517;-69
2021/12/30 02:48:31;;;;;;;66.70;8.60;;;7.20;99.90;;;;;;5032784;28;20082;-69
2021/12/30 02:51:00;;;;;;;76.50;9.95;;;7.20;99.90;;;;;;5047609;28;20073;-69
2021/12/30 02:53:25;;;;;;;77.85;8.95;;;7.50;99.90;;;;;;5051658;28;20098;-68
2021/12/30 02:55:53;;;;;;;64.13;9.70;;;7.30;99.90;;;;;;5043732;28;20045;-68
2021/12/30 02:58:20;;;;;;;76.10;8.65;;;7.20;99.90;;;;;;5050369;28;20045;-72
2021/12/30 03:00:48;;;;;;;99.97;10.35;;;7.20;99.90;;;;;;5047418;28;20045;-70
2021/12/30 03:03:22;;;;;;;66.88;10.27;;;7.30;99.90;;;;;;5047617;28;20041;-68
2021/12/30 03:05:54;;;;;;;75.82;9.32;;;7.20;99.90;;;;;;5050072;28;20053;-69
2021/12/30 03:08:20;;;;;;;77.00;10.10;;;7.20;99.90;;;;;;5051703;28;20056;-69
2021/12/30 03:10:45;;;;;;;82.15;10.93;;;7.30;99.90;;;;;;5051585;28;20041;-69
2021/12/30 03:13:16;;;;;;;78.60;11.02;;;7.30;99.90;;;;;;5048966;28;20056;-70
2021/12/30 03:15:42;;;;;;;82.97;10.98;;;7.70;99.90;;;;;;5050118;28;20148;-70
2021/12/30 03:18:08;;;;;;;79.53;11.07;;;7.20;99.90;;;;;;5050441;28;20048;-68
2021/12/30 03:20:35;;;;;;;73.30;11.25;;;7.30;99.90;;;;;;5050672;28;20057;-69
2021/12/30 03:23:02;;;;;;;75.53;11.15;;;7.20;99.90;;;;;;5049557;28;20133;-69
2021/12/30 03:25:27;;;;;;;87.93;12.70;;;7.30;99.90;;;;;;5051234;28;20087;-69
2021/12/30 03:27:54;;;;;;;108.82;13.95;;;7.30;99.90;;;;;;5032668;28;20041;-68
2021/12/30 03:30:19;;;;;;;90.75;13.65;;;7.30;99.90;;;;;;5050032;28;20041;-70
2021/12/30 03:32:45;;;;;;;82.53;13.25;;;7.30;99.90;;;;;;5033447;28;20056;-68
2021/12/30 03:35:12;;;;;;;83.80;13.05;;;7.40;99.90;;;;;;5051111;28;20529;-69
2021/12/30 03:37:38;;;;;;;101.85;15.52;;;7.40;99.90;;;;;;5049466;28;20135;-71
2021/12/30 03:40:11;;;;;;;95.75;15.63;;;7.40;99.90;;;;;;5051434;28;20099;-69
2021/12/30 03:42:37;;;;;;;83.78;15.05;;;7.50;99.90;;;;;;5050861;28;20048;-68
2021/12/30 03:45:08;;;;;;;69.63;14.75;;;7.60;99.90;;;;;;5051439;28;20033;-68
2021/12/30 03:47:38;;;;;;;82.55;15.65;;;7.70;99.90;;;;;;5051082;28;20128;-69
2021/12/30 03:50:07;;;;;;;92.22;17.00;;;7.70;99.90;;;;;;5045707;28;20044;-68
2021/12/30 03:52:33;;;;;;;84.13;17.23;;;7.70;99.90;;;;;;5043826;28;20091;-68
2021/12/30 03:54:58;;;;;;;101.95;16.92;;;7.80;99.90;;;;;;5050053;28;20044;-68
2021/12/30 03:57:24;;;;;;;104.70;17.63;;;7.70;99.90;;;;;;5051248;28;20045;-68
2021/12/30 03:59:50;;;;;;;108.85;17.30;;;7.70;99.90;;;;;;5049367;28;20045;-70
2021/12/30 04:02:16;;;;;;;86.07;17.23;;;7.40;99.90;;;;;;5052145;28;20099;-70
2021/12/30 04:04:45;;;;;;;93.82;18.58;;;7.70;99.90;;;;;;5053215;28;20045;-68
2021/12/30 04:07:10;;;;;;;107.78;17.98;;;7.70;99.90;;;;;;5054594;28;20449;-68
2021/12/30 04:09:39;;;;;;;78.63;16.48;;;7.80;99.90;;;;;;5053818;28;20076;-67
2021/12/30 04:12:05;;;;;;;83.25;18.88;;;7.10;99.90;;;;;;5054143;28;20092;-68
2021/12/30 04:14:31;;;;;;;95.88;18.95;;;7.90;99.90;;;;;;5051698;28;20033;-69
2021/12/30 04:16:57;;;;;;;97.78;19.40;;;7.90;99.90;;;;;;5054185;28;20044;-69
2021/12/30 04:19:23;;;;;;;86.68;18.52;;;8.00;99.90;;;;;;5052929;28;20158;-66
2021/12/30 04:21:55;;;;;;;88.00;17.40;;;8.00;99.90;;;;;;5053845;28;20159;-68
2021/12/30 04:24:21;;;;;;;110.43;19.73;;;8.00;99.90;;;;;;5053099;28;20443;-68
2021/12/30 04:26:50;;;;;;;103.70;18.02;;;8.00;99.90;;;;;;5053914;28;20072;-69
2021/12/30 04:29:18;;;;;;;90.38;15.85;;;8.00;99.90;;;;;;5035963;28;20572;-68
2021/12/30 04:31:44;;;;;;;83.07;16.87;;;8.00;99.90;;;;;;5054009;28;20079;-69
2021/12/30 04:34:09;;;;;;;87.07;15.70;;;8.10;99.90;;;;;;5051830;28;20322;-70
2021/12/30 04:36:39;;;;;;;91.72;15.70;;;8.20;99.90;;;;;;5054034;28;20049;-69
2021/12/30 04:39:08;;;;;;;116.82;17.50;;;8.20;99.90;;;;;;5054076;28;20048;-68
2021/12/30 04:41:34;;;;;;;87.28;17.08;;;8.30;99.90;;;;;;5054099;28;20041;-68
2021/12/30 04:44:01;;;;;;;83.78;15.80;;;8.30;99.90;;;;;;5051571;28;20221;-69
2021/12/30 04:46:27;;;;;;;94.40;17.77;;;8.40;99.90;;;;;;5035100;28;20510;-67
2021/12/30 04:48:55;;;;;;;98.43;17.23;;;8.50;99.90;;;;;;5052504;28;20080;-69
2021/12/30 04:51:21;;;;;;;94.25;17.38;;;8.50;99.90;;;;;;5053516;28;20053;-67
2021/12/30 04:53:50;;;;;;;94.85;17.08;;;8.50;99.90;;;;;;5052810;28;20060;-69
2021/12/30 04:56:15;;;;;;;127.35;19.92;;;8.60;99.90;;;;;;5053025;28;20118;-69
2021/12/30 04:58:41;;;;;;;95.25;18.15;;;8.60;99.90;;;;;;5052267;28;20475;-68
2021/12/30 05:01:10;;;;;;;97.70;18.02;;;8.60;99.90;;;;;;5049445;28;20101;-67
2021/12/30 05:03:35;;;;;;;106.85;18.27;;;8.70;99.90;;;;;;5051649;28;20033;-68
2021/12/30 05:06:04;;;;;;;92.88;17.35;;;8.70;99.90;;;;;;5052082;28;20403;-68
2021/12/30 05:08:30;;;;;;;111.18;19.85;;;8.70;99.90;;;;;;5051407;28;20041;-68
2021/12/30 05:10:56;;;;;;;120.38;20.75;;;8.70;99.90;;;;;;5052870;28;20151;-69
2021/12/30 05:13:21;;;;;;;103.82;20.70;;;8.80;99.90;;;;;;5052575;28;20087;-68
2021/12/30 05:15:47;;;;;;;101.20;21.17;;;9.00;99.90;;;;;;5052243;28;20510;-68
2021/12/30 05:18:15;;;;;;;115.57;23.60;;;9.00;99.90;;;;;;5051713;28;20048;-67
2021/12/30 05:20:41;;;;;;;116.72;24.35;;;9.00;99.90;;;;;;5053017;28;20063;-70
2021/12/30 05:23:08;;;;;;;131.13;26.02;;;9.10;99.90;;;;;;5050410;28;20087;-68
2021/12/30 05:25:34;;;;;;;127.85;26.10;;;9.10;99.90;;;;;;5052952;28;20049;-68
2021/12/30 05:28:00;;;;;;;112.05;24.67;;;9.20;99.90;;;;;;5051097;28;20497;-68
2021/12/30 05:30:27;;;;;;;114.45;26.73;;;9.30;99.90;;;;;;5051791;28;20556;-69
2021/12/30 05:32:55;;;;;;;132.68;28.92;;;9.40;99.90;;;;;;5051807;28;20049;-68
2021/12/30 05:35:21;;;;;;;;;;;9.40;99.90;;;;;;5051940;28;20041;-68
2021/12/30 05:37:48;;;;;;;121.30;28.92;;;9.50;99.90;;;;;;5052921;28;20371;-68
2021/12/30 05:40:17;;;;;;;129.60;30.52;;;9.50;99.90;;;;;;5051927;28;20069;-69
2021/12/30 05:42:46;;;;;;;130.20;29.58;;;9.60;99.90;;;;;;5052633;28;20049;-69
2021/12/30 05:45:14;;;;;;;170.32;32.95;;;9.60;99.90;;;;;;5033847;28;20037;-69
2021/12/30 05:47:41;;;;;;;164.30;34.70;;;9.60;99.90;;;;;;5051519;28;20045;-70
2021/12/30 05:50:09;;;;;;;108.75;28.85;;;9.70;99.90;;;;;;5050933;28;20045;-70
2021/12/30 05:52:36;;;;;;;116.05;30.65;;;9.70;99.90;;;;;;5051288;28;20049;-69
2021/12/30 05:55:13;;;;;;;128.57;29.83;;;9.70;99.90;;;;;;5034861;28;20076;-68
2021/12/30 05:57:42;;;;;;;125.43;29.27;;;10.00;99.90;;;;;;5051020;28;20048;-68
2021/12/30 06:00:11;;;;;;;137.45;30.83;;;9.80;99.90;;;;;;5051499;28;20120;-69
2021/12/30 06:02:37;;;;;;;103.18;23.48;;;9.80;99.90;;;;;;5052008;28;20098;-69
2021/12/30 06:05:05;;;;;;;120.13;26.25;;;9.90;99.90;;;;;;5049480;28;20092;-69
2021/12/30 06:07:31;;;;;;;82.78;23.35;;;9.80;99.90;;;;;;5050999;28;20076;-70
2021/12/30 06:09:57;;;;;;;76.63;21.02;;;9.90;99.90;;;;;;5050098;28;20449;-69
2021/12/30 06:12:23;;;;;;;78.03;21.23;;;9.90;99.90;;;;;;5050407;28;20070;-70
2021/12/30 06:14:48;;;;;;;76.90;19.70;;;9.90;99.90;;;;;;5051494;28;20037;-70
2021/12/30 06:17:15;;;;;;;63.20;18.80;;;9.90;99.90;;;;;;5050550;28;20045;-68
2021/12/30 06:19:45;;;;;;;76.30;19.73;;;9.90;99.90;;;;;;5050537;28;20044;-69
2021/12/30 06:22:12;;;;;;;65.30;18.70;;;10.00;99.90;;;;;;5049338;28;20218;-68
2021/12/30 06:24:39;;;;;;;60.75;17.73;;;10.00;99.90;;;;;;5049753;28;20080;-70
2021/12/30 06:27:05;;;;;;;69.95;18.80;;;10.00;99.90;;;;;;5049787;28;20124;-70
2021/12/30 06:29:31;;;;;;;66.95;19.33;;;10.00;99.90;;;;;;5051968;28;20053;-69
2021/12/30 06:31:56;;;;;;;74.90;19.30;;;10.00;99.90;;;;;;5052089;28;20055;-70
2021/12/30 06:34:22;;;;;;;70.15;19.33;;;10.10;99.90;;;;;;5050456;28;20040;-70
2021/12/30 06:36:51;;;;;;;80.20;20.05;;;10.00;99.90;;;;;;5050095;28;20067;-71
2021/12/30 06:39:17;;;;;;;72.45;20.25;;;10.10;99.90;;;;;;5050888;28;20460;-69
2021/12/30 06:41:49;;;;;;;98.15;23.30;;;10.10;99.90;;;;;;5051882;28;20045;-70
2021/12/30 06:44:14;;;;;;;107.57;23.02;;;10.10;99.90;;;;;;5050076;28;20116;-70
2021/12/30 06:46:48;;;;;;;101.65;22.33;;;10.10;99.90;;;;;;5042470;28;20128;-70
2021/12/30 06:49:17;;;;;;;113.82;23.42;;;10.10;99.90;;;;;;5030370;28;20160;-72
2021/12/30 06:51:46;;;;;;;96.70;23.55;;;10.10;99.90;;;;;;5030312;28;20049;-70
2021/12/30 06:54:14;;;;;;;109.18;25.35;;;10.20;99.90;;;;;;5031447;28;20113;-69
2021/12/30 06:56:41;;;;;;;105.55;22.85;;;10.20;99.90;;;;;;5038229;28;20041;-70
2021/12/30 06:59:15;;;;;;;102.13;22.23;;;10.20;99.90;;;;;;5049920;28;20094;-70
2021/12/30 07:01:44;;;;;;;100.38;21.25;;;10.20;99.90;;;;;;5051238;28;20048;-70
2021/12/30 07:04:10;;;;;;;150.45;24.30;;;10.20;99.90;;;;;;5051436;28;20462;-69
2021/12/30 07:06:35;;;;;;;85.38;20.30;;;10.20;99.90;;;;;;5050538;28;20072;-68
2021/12/30 07:09:01;;;;;;;91.40;20.90;;;10.20;99.90;;;;;;5049760;28;20045;-69
2021/12/30 07:11:27;;;;;;;82.03;19.17;;;10.30;99.90;;;;;;5050447;28;20034;-69
2021/12/30 07:13:52;;;;;;;94.93;20.30;;;10.30;99.90;;;;;;5051389;28;20033;-69
2021/12/30 07:16:18;;;;;;;69.70;18.13;;;10.30;99.90;;;;;;5050066;28;20045;-70
2021/12/30 07:18:44;;;;;;;99.30;20.52;;;10.30;99.90;;;;;;5050628;28;20471;-69
2021/12/30 07:21:09;;;;;;;74.63;17.40;;;10.30;99.90;;;;;;5051154;28;20145;-70
2021/12/30 07:23:35;;;;;;;76.35;18.50;;;10.40;99.90;;;;;;5050877;28;20052;-69
2021/12/30 07:26:01;;;;;;;75.90;17.33;;;10.40;99.90;;;;;;5048968;28;20041;-69
2021/12/30 07:28:31;;;;;;;83.80;17.15;;;10.40;99.90;;;;;;5050064;28;20099;-69
2021/12/30 07:30:56;;;;;;;69.97;16.23;;;10.40;99.90;;;;;;5050216;28;20131;-69
2021/12/30 07:33:25;;;;;;;53.30;14.85;;;10.40;99.90;;;;;;5049428;28;20083;-69
2021/12/30 07:35:50;;;;;;;106.68;17.58;;;10.50;99.90;;;;;;5051195;28;20091;-68
2021/12/30 07:38:16;;;;;;;59.63;15.07;;;10.50;99.90;;;;;;5055020;28;20045;-69
2021/12/30 07:40:42;;;;;;;61.83;14.77;;;10.50;99.90;;;;;;5053912;28;20147;-68
2021/12/30 07:43:08;;;;;;;46.60;13.32;;;10.50;99.90;;;;;;5054551;28;20037;-70
2021/12/30 07:45:33;;;;;;;52.15;14.52;;;10.50;99.90;;;;;;5053326;28;20049;-70
2021/12/30 07:47:59;;;;;;;50.92;13.95;;;10.50;99.90;;;;;;5053413;28;20041;-68
2021/12/30 07:50:28;;;;;;;63.40;15.15;;;10.50;99.90;;;;;;5054662;28;20372;-70
2021/12/30 07:52:56;;;;;;;68.00;14.98;;;10.50;99.90;;;;;;5054080;28;20072;-70
2021/12/30 07:55:21;;;;;;;54.25;13.73;;;10.50;99.90;;;;;;5053629;28;20076;-69
2021/12/30 07:57:47;;;;;;;56.70;13.95;;;10.60;99.90;;;;;;5069695;28;20126;-68
2021/12/30 08:00:17;;;;;;;50.78;13.40;;;10.60;99.90;;;;;;5050274;28;20049;-68
2021/12/30 08:02:44;;;;;;;38.85;12.82;;;10.60;99.90;;;;;;5016683;28;20049;-69
2021/12/30 08:05:16;;;;;;;43.97;12.40;;;10.50;99.90;;;;;;5033155;28;20045;-69
2021/12/30 08:07:45;;;;;;;37.13;12.38;;;10.60;99.90;;;;;;5034482;28;20041;-69
2021/12/30 08:10:14;;;;;;;39.95;12.05;;;10.60;99.90;;;;;;5053944;28;20048;-69
2021/12/30 08:12:42;;;;;;;38.58;11.95;;;10.60;99.90;;;;;;5020450;28;20041;-70
2021/12/30 08:15:12;;;;;;;52.88;13.50;;;10.60;99.90;;;;;;5054501;28;20044;-70
2021/12/30 08:17:39;;;;;;;53.27;13.63;;;10.60;99.90;;;;;;5053739;28;20459;-70
2021/12/30 08:20:07;;;;;;;33.60;12.50;;;10.70;99.90;;;;;;5054150;28;20337;-71
2021/12/30 08:22:33;;;;;;;33.30;12.53;;;10.70;99.90;;;;;;5054252;28;20045;-69
2021/12/30 08:25:03;;;;;;;36.05;11.57;;;10.70;99.90;;;;;;5054106;28;20545;-70
2021/12/30 08:27:29;;;;;;;28.02;10.80;;;10.70;99.90;;;;;;5052671;28;20041;-70
2021/12/30 08:29:55;;;;;;;48.20;12.52;;;10.80;99.90;;;;;;5053638;28;20596;-69
2021/12/30 08:32:21;;;;;;;20.10;8.25;;;10.70;99.90;;;;;;5052669;28;20367;-70
2021/12/30 08:34:47;;;;;;;40.80;10.90;;;10.80;99.90;;;;;;5053770;28;20119;-69
2021/12/30 08:37:13;;;;;;;15.90;7.90;;;10.80;99.90;;;;;;5052655;28;20094;-70
2021/12/30 08:39:40;;;;;;;27.10;8.52;;;10.80;99.90;;;;;;5053717;28;20132;-70
2021/12/30 08:42:17;;;;;;;15.73;7.57;;;10.80;99.90;;;;;;5052406;28;20041;-69
2021/12/30 08:44:43;;;;;;;16.23;7.43;;;10.90;99.90;;;;;;5032923;28;20068;-70
2021/12/30 08:47:08;;;;;;;16.95;8.50;;;10.80;99.90;;;;;;5034069;28;20536;-71
2021/12/30 08:49:34;;;;;;;24.08;10.00;;;10.90;99.90;;;;;;5048131;28;20071;-69
2021/12/30 08:52:00;;;;;;;42.42;11.60;;;10.90;99.90;;;;;;5052434;28;20036;-70
2021/12/30 08:54:25;;;;;;;29.55;11.27;;;10.90;99.90;;;;;;5052666;28;20161;-70
2021/12/30 08:56:54;;;;;;;28.17;12.13;;;11.00;99.90;;;;;;5053519;28;20121;-70
2021/12/30 08:59:20;;;;;;;27.70;11.82;;;11.00;99.90;;;;;;5052500;28;20055;-70
2021/12/30 09:01:45;;;;;;;35.92;12.30;;;11.00;99.90;;;;;;5053489;28;20041;-69
2021/12/30 09:04:11;;;;;;;26.52;11.57;;;11.00;99.90;;;;;;5053345;28;20093;-70
2021/12/30 09:06:37;;;;;;;31.05;11.18;;;11.10;99.90;;;;;;5035716;28;20121;-70
2021/12/30 09:09:02;;;;;;;27.02;11.70;;;11.10;99.90;;;;;;5021240;28;20053;-70
2021/12/30 09:11:28;;;;;;;29.77;11.15;;;11.10;99.90;;;;;;5033488;28;20459;-70
2021/12/30 09:13:54;;;;;;;27.80;10.02;;;11.10;99.90;;;;;;5042095;28;20371;-70
2021/12/30 09:16:19;;;;;;;20.55;9.73;;;11.20;99.90;;;;;;5053404;28;20487;-70
2021/12/30 09:18:45;;;;;;;26.45;10.18;;;11.10;99.90;;;;;;5052318;28;20033;-70
2021/12/30 09:21:11;;;;;;;25.88;10.95;;;11.10;99.90;;;;;;5053210;28;20463;-70
2021/12/30 09:23:39;;;;;;;34.00;10.73;;;11.10;99.90;;;;;;5051681;28;20411;-68
2021/12/30 09:26:05;;;;;;;30.38;11.15;;;11.10;99.90;;;;;;5052068;28;20076;-70
2021/12/30 09:28:30;;;;;;;28.90;11.00;;;11.10;99.90;;;;;;5052858;28;20083;-71
2021/12/30 09:31:02;;;;;;;30.95;11.20;;;11.10;99.90;;;;;;5052198;28;20045;-70
2021/12/30 09:33:28;;;;;;;42.47;11.95;;;11.10;99.90;;;;;;5052862;28;20048;-69
2021/12/30 09:35:54;;;;;;;34.33;11.75;;;11.20;99.90;;;;;;5034193;28;20049;-68
2021/12/30 09:38:20;;;;;;;31.60;10.48;;;11.20;99.90;;;;;;5051570;28;20466;-68
2021/12/30 09:40:46;;;;;;;46.47;12.95;;;11.10;99.90;;;;;;5051766;28;20133;-70
2021/12/30 09:43:12;;;;;;;35.38;11.32;;;11.10;99.90;;;;;;5052973;28;20129;-69
2021/12/30 09:45:40;;;;;;;34.10;11.38;;;11.10;99.90;;;;;;5034029;28;20037;-69
2021/12/30 09:48:11;;;;;;;34.72;12.68;;;11.10;99.90;;;;;;5033068;28;20377;-68
2021/12/30 09:50:40;;;;;;;25.67;11.10;;;11.10;99.90;;;;;;5031772;28;20053;-69
2021/12/30 09:53:07;;;;;;;38.47;12.95;;;11.10;99.90;;;;;;5046522;28;20053;-69
2021/12/30 09:55:33;;;;;;;33.38;12.68;;;11.10;99.90;;;;;;5063763;28;20092;-69
2021/12/30 09:58:00;;;;;;;46.88;13.82;;;11.20;99.90;;;;;;5032741;28;20037;-69
2021/12/30 10:00:26;;;;;;;33.58;13.18;;;11.10;99.90;;;;;;5034081;28;20037;-68
2021/12/30 10:02:52;;;;;;;48.20;15.13;;;11.20;99.90;;;;;;5034179;28;20410;-69
2021/12/30 10:05:22;;;;;;;32.55;13.32;;;11.10;99.90;;;;;;5051043;28;20049;-70
2021/12/30 10:08:25;;;;;;;40.33;13.75;;;11.20;99.90;;;;;;5052610;28;20045;-69
2021/12/30 10:10:54;;;;;;;55.75;14.35;;;11.20;99.90;;;;;;5052443;28;20088;-70
2021/12/30 10:13:29;;;;;;;38.65;12.38;;;11.20;99.90;;;;;;5050306;28;20093;-70
2021/12/30 10:16:01;;;;;;;41.75;12.80;;;11.20;99.90;;;;;;5015603;28;20107;-69
2021/12/30 10:18:55;;;;;;;46.10;12.30;;;11.20;99.90;;;;;;5030765;28;20052;-67
2021/12/30 10:21:32;;;;;;;48.55;11.82;;;11.30;99.90;;;;;;5032048;28;20053;-67
2021/12/30 10:24:04;;;;;;;36.95;11.27;;;11.20;99.90;;;;;;5051667;28;20041;-68
2021/12/30 10:26:29;;;;;;;43.30;11.55;;;11.20;99.90;;;;;;5051110;28;20041;-68
2021/12/30 10:29:01;;;;;;;55.97;12.63;;;11.20;99.90;;;;;;5052145;28;20056;-70
2021/12/30 10:31:29;;;;;;;47.75;12.60;;;11.20;99.90;;;;;;5050681;28;20136;-68
2021/12/30 10:34:07;;;;;;;45.75;11.45;;;11.30;99.90;;;;;;5052150;28;20044;-68
2021/12/30 10:36:39;;;;;;;47.78;11.82;;;11.20;99.90;;;;;;5050896;28;20071;-68
2021/12/30 10:39:32;;;;;;;34.67;10.93;;;11.30;99.90;;;;;;5051656;28;20056;-70
2021/12/30 10:42:06;;;;;;;45.80;12.52;;;11.30;99.90;;;;;;5050786;28;20090;-69
2021/12/30 10:44:56;;;;;;;56.63;13.75;;;11.30;99.90;;;;;;5051872;28;20471;-69
2021/12/30 10:47:24;;;;;;;38.85;11.35;;;11.30;99.90;;;;;;5032093;28;20045;-69
2021/12/30 10:50:01;;;;;;;;;;;11.20;99.90;;;;;;5032226;28;20136;-68
2021/12/30 10:52:28;;;;;;;40.00;11.85;;;11.30;99.90;;;;;;5030335;28;19960;-69
2021/12/30 10:54:54;;;;;;;46.67;12.73;;;11.20;99.90;;;;;;5038576;28;20054;-68
2021/12/30 10:57:26;;;;;;;42.42;11.90;;;11.30;99.90;;;;;;5032110;28;20128;-69
2021/12/30 10:59:54;;;;;;;54.97;13.50;;;11.20;99.90;;;;;;5057883;28;20053;-70
2021/12/30 11:02:22;;;;;;;47.53;13.10;;;11.20;99.90;;;;;;5050461;28;20417;-69
2021/12/30 11:04:48;;;;;;;;;;;11.20;99.90;;;;;;5051942;28;20522;-69
2021/12/30 11:07:16;;;;;;;63.05;13.40;;;11.20;99.90;;;;;;5051432;28;19921;-68
2021/12/30 11:09:50;;;;;;;68.65;13.80;;;11.30;99.90;;;;;;5049777;28;20067;-72
2021/12/30 11:12:21;;;;;;;46.03;11.23;;;11.20;99.90;;;;;;5053727;28;20052;-70
2021/12/30 11:14:47;;;;;;;70.53;12.52;;;11.20;99.90;;;;;;5055535;28;20049;-68
2021/12/30 11:17:22;;;;;;;40.72;10.38;;;11.20;99.90;;;;;;5071120;28;20175;-69
2021/12/30 11:19:59;;;;;;;60.33;13.27;;;11.20;99.90;;;;;;5054857;28;20518;-70
2021/12/30 11:22:28;;;;;;;70.35;12.60;;;11.30;99.90;;;;;;5053990;28;20087;-69
2021/12/30 11:24:56;;;;;;;53.90;12.05;;;11.20;99.90;;;;;;5054905;28;20057;-68
2021/12/30 11:27:23;;;;;;;62.80;12.18;;;11.20;99.90;;;;;;5053798;28;20052;-69
2021/12/30 11:29:52;;;;;;;73.03;14.38;;;11.20;99.90;;;;;;5053221;28;20041;-69
2021/12/30 11:32:21;;;;;;;75.65;13.82;;;11.20;99.90;;;;;;5055301;28;20041;-71
2021/12/30 11:34:48;;;;;;;61.58;13.40;;;11.20;99.90;;;;;;5054892;28;20447;-70
2021/12/30 11:37:15;;;;;;;55.10;13.02;;;11.20;99.90;;;;;;5053905;28;20442;-68
2021/12/30 11:39:48;;;;;;;62.60;12.68;;;11.20;99.90;;;;;;5053170;28;20068;-69
2021/12/30 11:42:22;;;;;;;68.45;13.82;;;11.20;99.90;;;;;;5053951;28;20114;-69
2021/12/30 11:44:56;;;;;;;69.00;14.55;;;11.20;99.90;;;;;;5054161;28;20052;-69
2021/12/30 11:47:34;;;;;;;83.57;14.90;;;11.20;99.90;;;;;;5055030;28;20045;-68
2021/12/30 11:50:12;;;;;;;83.53;15.70;;;11.20;99.90;;;;;;5054645;28;20483;-70
2021/12/30 11:52:55;;;;;;;69.68;15.70;;;11.30;99.90;;;;;;5054478;28;20386;-70
2021/12/30 11:55:59;;;;;;;67.40;15.05;;;11.30;99.90;;;;;;5054701;28;20561;-70
2021/12/30 11:58:43;;;;;;;76.10;15.10;;;11.30;99.90;;;;;;5050231;28;20406;-67
2021/12/30 12:01:29;;;;;;;91.60;15.80;;;11.30;99.90;;;;;;5033801;28;20045;-68
2021/12/30 12:04:01;;;;;;;66.78;12.52;;;11.30;99.90;;;;;;5034679;28;20045;-69
2021/12/30 12:06:38;;;;;;;68.72;11.85;;;11.30;99.90;;;;;;5034436;28;20037;-68
2021/12/30 12:09:32;;;;;;;59.07;11.20;;;11.30;99.90;;;;;;5044413;28;20052;-69
2021/12/30 12:12:03;;;;;;;61.47;11.27;;;11.30;99.90;;;;;;5053652;28;20045;-69
2021/12/30 12:14:31;;;;;;;76.10;13.27;;;11.30;99.90;;;;;;5053031;28;20049;-69
2021/12/30 12:17:00;;;;;;;82.10;12.43;;;11.30;99.90;;;;;;5054332;28;20670;-69
2021/12/30 12:19:43;;;;;;;74.95;11.98;;;11.30;99.90;;;;;;5053559;28;20057;-67
2021/12/30 12:22:28;;;;;;;56.67;11.20;;;11.30;99.90;;;;;;5052741;28;20053;-69
2021/12/30 12:25:22;;;;;;;82.63;13.27;;;11.40;99.90;;;;;;5052126;28;20068;-67
2021/12/30 12:27:51;;;;;;;52.20;11.35;;;11.40;99.90;;;;;;5054312;28;20036;-69
2021/12/30 12:30:32;;;;;;;54.35;11.05;;;11.50;99.90;;;;;;5036150;28;20491;-69
2021/12/30 12:33:00;;;;;;;70.40;11.83;;;11.50;99.90;;;;;;5033984;28;20491;-71
2021/12/30 12:35:40;;;;;;;58.60;10.32;;;11.50;99.90;;;;;;5053803;28;20341;-70
2021/12/30 12:38:07;;;;;;;64.47;10.60;;;11.50;99.90;;;;;;5054514;28;20130;-69
2021/12/30 12:40:54;;;;;;;79.20;11.93;;;11.50;99.90;;;;;;5053599;28;20049;-72